• Join FlightAware (Why Join?)
  • Login
  • US Flag 
11:48PM EDT


 

Airport Tracker/Info


-or-


 

Live Flight TrackerFlight Track Log ✈ UAL252 ✈ 25-Jul-2013 ✈ KIAH - KORD

Flight Track Log - Related Links

Times and Time Zones

All times are in EDT time to prevent confusion due to time zone crossing. See the UAL252 flight status page for this flight to view local times or setup timezone preferences in your user account.

Time Position Orientation Groundspeed Altitude Reporting Facility
EDT Latitude Longitude Course Direction KTS MPH feet Rate Location/Type
09:16AM 29.9550 -95.3394 23° Northeast 195 224 900  Level Houston Center
09:17AM 29.9572 -95.3875 273° West 239 275 3,400 1,320 Climbing Houston Center
09:19AM 30.3666 -95.1833 14° North  Level FlightAware Approximate
09:19AM 30.0342 -95.3542 21° North 284 327 4,100  Level Houston Center
09:20AM 30.4592 -95.1345 27° Northeast  Level FlightAware Approximate
09:20AM 30.1206 -95.3094 24° Northeast 280 322 7,000  Level Houston Center
09:21AM 30.5508 -95.0829 23° Northeast  Level FlightAware Approximate
09:21AM 30.2081 -95.2678 22° Northeast 284 327 10,600  Level Houston Center
09:22AM 30.2936 -95.2256 23° Northeast 326 375 12,300 1,980 Climbing Houston Center
09:23AM 30.3856 -95.1800 23° Northeast 351 404 14,700 2,220 Climbing Houston Center
09:24AM 30.4900 -95.1253 24° Northeast 369 425 16,900 1,980 Climbing Houston Center
09:25AM 30.5875 -95.0772 23° Northeast 378 435 18,800 1,800 Climbing Houston Center
09:26AM 30.6844 -95.0178 28° Northeast 388 447 20,700 1,620 Climbing Houston Center
09:27AM 30.7828 -94.9550 29° Northeast 397 457 22,200 1,320 Climbing Houston Center
09:28AM 30.8836 -94.8919 28° Northeast 410 472 23,500 1,500 Climbing Houston Center
09:29AM 31.0092 -94.8131 28° Northeast 422 486 25,400 1,500 Climbing Houston Center
09:30AM 31.1139 -94.7472 28° Northeast 426 490 26,600 1,200 Climbing Houston Center
09:31AM 31.2242 -94.6758 29° Northeast 438 504 28,000 1,080 Climbing Houston Center
09:32AM 31.3208 -94.6078 31° Northeast 440 506 28,900 960 Climbing Houston Center
09:33AM 31.4517 -94.5178 30° Northeast 456 525 30,000 1,020 Climbing Houston Center
09:34AM 31.5617 -94.4417 31° Northeast 459 528 31,100 1,380 Climbing Houston Center
09:35AM 31.6711 -94.3650 31° Northeast 459 528 32,900 1,560 Climbing Houston Center
09:36AM 31.7764 -94.2931 30° Northeast 442 509 34,400 1,380 Climbing Houston Center
09:37AM 31.8950 -94.2083 31° Northeast 434 499 35,800 960 Climbing Houston Center
09:39AM 31.9992 -94.1358 31° Northeast 435 501 36,400 540 Climbing Houston Center
09:40AM 32.1092 -94.0589 31° Northeast 439 505 37,000 240 Climbing Houston Center
09:41AM 32.2153 -93.9836 31° Northeast 443 510 37,000  Level Houston Center
09:42AM 32.3200 -93.9086 31° Northeast 441 507 37,000 240 Level Houston Center
09:43AM 32.4642 -93.8014 32° Northeast 439 505 37,600 600 Climbing Fort Worth Center
09:44AM 32.5706 -93.7256 31° Northeast 439 505 38,400 660 Climbing Fort Worth Center
09:45AM 32.6750 -93.6522 31° Northeast 439 505 39,000 240 Climbing Fort Worth Center
09:46AM 32.7769 -93.5764 32° Northeast 439 505 38,900  Descending Fort Worth Center
09:47AM 32.8811 -93.5025 31° Northeast 439 505 39,000  Climbing Fort Worth Center
09:48AM 32.9831 -93.4264 32° Northeast 439 505 38,900 -60 Descending Fort Worth Center
09:49AM 33.0875 -93.3572 29° Northeast 434 499 38,900  Level Fort Worth Center
09:50AM 33.1872 -93.2808 33° Northeast 434 499 39,000  Climbing Fort Worth Center
09:51AM 33.2911 -93.2064 31° Northeast 429 494 39,000  Level Fort Worth Center
09:52AM 33.3931 -93.1317 31° Northeast 434 499 39,000  Level Fort Worth Center
09:53AM 33.4944 -93.0625 30° Northeast 434 499 39,000  Level Memphis Center
09:54AM 33.5961 -92.9858 32° Northeast 434 499 39,000  Level Memphis Center
09:55AM 33.7000 -92.9114 31° Northeast 434 499 39,000  Level Memphis Center
09:56AM 33.8017 -92.8344 32° Northeast 434 499 39,000 -60 Level Memphis Center
09:57AM 33.9033 -92.7622 31° Northeast 434 499 38,900 -60 Descending Memphis Center
09:58AM 34.0028 -92.6875 32° Northeast 434 499 38,900  Level Memphis Center
09:59AM 34.1108 -92.6075 32° Northeast 429 494 38,900  Level Memphis Center
10:00AM 34.2122 -92.5297 32° Northeast 424 488 39,000  Climbing Memphis Center
10:01AM 34.3158 -92.4544 31° Northeast 424 488 39,000  Level Memphis Center
10:02AM 34.4172 -92.3739 33° Northeast 424 488 39,000  Level Memphis Center
10:03AM 34.5186 -92.2981 32° Northeast 424 488 39,000  Level Memphis Center
10:04AM 34.6200 -92.2222 32° Northeast 424 488 39,000  Level Memphis Center
10:05AM 34.7272 -92.1639 24° Northeast 424 488 39,000 -60 Level Memphis Center
10:06AM 34.8425 -92.1308 13° North 417 480 38,900 -60 Descending Memphis Center
10:07AM 34.9494 -92.1003 13° North 404 465 38,900  Level Memphis Center
10:08AM 35.0603 -92.0719 12° North 398 458 39,000  Climbing Memphis Center
10:09AM 35.1733 -92.0386 14° North 398 458 39,000  Level Memphis Center
10:10AM 35.2844 -92.0053 14° North 398 458 39,000  Level Memphis Center
10:11AM 35.3953 -91.9744 13° North 398 458 39,000  Level Memphis Center
10:12AM 35.5042 -91.9408 14° North 398 458 39,000  Level Memphis Center
10:13AM 35.6047 -91.9122 13° North 403 464 39,000  Level Memphis Center
10:14AM 35.7156 -91.8783 14° North 403 464 39,000 -60 Level Memphis Center
10:15AM 35.8267 -91.8472 13° North 403 464 38,900  Descending Memphis Center
10:16AM 35.9353 -91.8158 13° North 403 464 39,000  Climbing Memphis Center
10:17AM 36.0442 -91.7869 12° North 396 456 39,000  Level Memphis Center
10:18AM 36.1508 -91.7528 15° North 396 456 39,000  Level Memphis Center
10:19AM 36.2617 -91.7211 13° North 396 456 39,000  Level Memphis Center
10:20AM 36.3706 -91.6894 13° North 396 456 39,000 -60 Level Memphis Center
10:21AM 36.4792 -91.6578 13° North 396 456 38,900 -60 Descending Memphis Center
10:22AM 36.5942 -91.6208 14° North 401 461 38,900  Level Memphis Center
10:23AM 36.7483 -91.5700 15° North 403 464 38,900  Level Kansas City Center
10:25AM 36.8581 -91.5381 13° North 405 466 39,000  Climbing Kansas City Center
10:26AM 36.9856 -91.5050 12° North 393 452 39,000  Level Kansas City Center
10:27AM 37.0958 -91.4706 14° North 401 461 39,000 -60 Level Kansas City Center
10:28AM 37.2094 -91.4325 15° North 414 476 38,900  Descending Kansas City Center
10:29AM 37.3183 -91.4000 13° North 406 467 39,000  Climbing Kansas City Center
10:30AM 37.4292 -91.3664 14° North 408 470 39,000  Level Kansas City Center
10:31AM 37.5408 -91.3306 14° North 412 474 39,000  Level Kansas City Center
10:32AM 37.6747 -91.2908 13° North 412 474 39,000  Level Kansas City Center
10:33AM 37.7864 -91.2569 13° North 413 475 39,000  Level Kansas City Center
10:34AM 37.8967 -91.2211 14° North 411 473 39,000 -120 Level Kansas City Center
10:35AM 38.0053 -91.1886 13° North 405 466 38,800 -540 Descending Kansas City Center
10:36AM 38.1150 -91.1533 14° North 406 467 37,900 -900 Descending Kansas City Center
10:37AM 38.2342 -91.1167 14° North 410 472 37,000 -480 Descending Kansas City Center
10:38AM 38.3450 -91.0925 10° North 407 468 37,000  Level Kansas City Center
10:39AM 38.4569 -91.0975 358° North 402 463 37,000  Level Kansas City Center
10:40AM 38.5681 -91.0564 16° North 420 483 37,000  Level Kansas City Center
10:41AM 38.6778 -91.0011 21° North 423 487 37,000 -120 Level Kansas City Center
10:42AM 38.8075 -90.9317 23° Northeast 419 482 36,800 -600 Descending Kansas City Center
10:43AM 38.9153 -90.8717 23° Northeast 419 482 35,800 -1,020 Descending Kansas City Center
10:44AM 39.0242 -90.8111 23° Northeast 422 486 34,800 -1,440 Descending Kansas City Center
10:45AM 39.1319 -90.7522 23° Northeast 420 483 32,900 -1,800 Descending Kansas City Center
10:46AM 39.2344 -90.6939 24° Northeast 407 468 31,100 -1,020 Descending Kansas City Center
10:47AM 39.3375 -90.6378 23° Northeast 401 461 30,900 -1,020 Descending Kansas City Center
10:48AM 39.4403 -90.5789 24° Northeast 403 464 29,100 -960 Descending Kansas City Center
10:49AM 39.5694 -90.5067 23° Northeast 417 480 29,000 -60 Descending Kansas City Center
10:50AM 39.6744 -90.4469 24° Northeast 415 478 29,000 -60 Level Kansas City Center
10:51AM 39.7678 -90.3936 24° Northeast 406 467 28,900 -60 Descending Kansas City Center
10:52AM 39.8711 -90.3369 23° Northeast 404 465 28,900  Level Kansas City Center
10:53AM 39.9942 -90.2656 24° Northeast 403 464 29,000  Climbing Kansas City Center
10:54AM 40.0972 -90.2072 23° Northeast 403 464 29,000  Level Kansas City Center
10:56AM 40.1989 -90.1486 24° Northeast 401 461 29,000  Level Kansas City Center
10:58AM 40.4017 -90.0319 24° Northeast 397 457 29,000 -60 Level Kansas City Center
10:59AM 40.5019 -89.9739 24° Northeast 395 455 28,900 -540 Descending Kansas City Center
11:00AM 40.6144 -89.9086 24° Northeast 392 451 28,000 -960 Descending Kansas City Center
11:01AM 40.7131 -89.8522 23° Northeast 398 458 27,000 -1,020 Descending Kansas City Center
11:02AM 40.8192 -89.7883 24° Northeast 407 468 26,000 -1,080 Descending Kansas City Center
11:03AM 40.9656 -89.7003 24° Northeast 399 459 24,500 -900 Descending Chicago Center
11:04AM 41.0344 -89.5842 52° Northeast 423 487 24,000 -540 Descending Chicago Center
11:05AM 41.1025 -89.4617 54° Northeast 415 478 23,500 -1,020 Descending Chicago Center
11:06AM 41.1694 -89.3400 54° Northeast 411 473 21,900 -2,040 Descending Chicago Center
11:07AM 41.2483 -89.1964 54° Northeast 402 463 19,400 -2,280 Descending Chicago Center
11:08AM 41.3086 -89.0839 54° Northeast 377 434 17,200 -2,280 Descending Chicago Center
11:09AM 41.3653 -88.9778 55° Northeast 358 412 14,700 -2,460 Descending Chicago Center
11:10AM 41.4214 -88.8758 54° Northeast 347 399 12,200 -1,800 Descending Chicago Center
11:11AM 41.4756 -88.7756 54° Northeast 338 389 11,000 -600 Descending Chicago Center
11:12AM 41.5283 -88.6692 56° Northeast 344 396 11,000  Level Chicago Center
11:13AM 41.5831 -88.5289 62° Northeast 356 410 11,000  Level Chicago Center
11:14AM 41.6375 -88.4167 57° Northeast 356 410 11,000  Level Chicago Center
11:15AM 41.6994 -88.3128 51° Northeast 357 411 11,000 -300 Level Chicago Center
11:16AM 41.7592 -88.2100 52° Northeast 353 406 10,400 -780 Descending Chicago Center
11:18AM 41.8094 -88.1225 52° Northeast 310 357 9,400 -1,260 Descending Chicago Center
11:19AM 41.8578 -88.0361 53° Northeast 294 338 7,900 -1,200 Descending Chicago Center
11:20AM 41.8842 -87.9200 73° East 289 333 7,000 -480 Descending Chicago Center
11:21AM 41.8839 -87.8144 90° East 285 328 7,000 -780 Level Chicago Center
11:22AM 41.8842 -87.7089 90° East 284 327 5,500 -1,020 Descending Chicago Center
11:23AM 41.9144 -87.6289 63° Northeast 281 323 5,000 -240 Descending Chicago Center
11:24AM 41.9586 -87.6731 323° Northwest 235 270 5,000  Level Chicago Center